Aérodrome :
LOGIN :

S'inscrire | Disclaimer

   EN    FR    IT 

 










Légende :    VFR   VFR Marginal   IFR   IFR Intensif   IFR Très Intensif
Visi : 
Plafond : 
>= 8 km
>= 3000ft
5 à 8 km
1000 à 3000 ft
1500m à 5 km
500 à 1000 ft
800 à 1500m
200 à 500 ft
< 800m
< 200 ft
Symboles :   Orages  Brouillard  Fortes neiges  Fortes précipitations  Vent > 20 kt
SIGMETs :   Divers  Orages  Givrage  Turbulence  Onde Orograph.  Cendres Volcan.







- Altitude de l'aérodrome : 776 ft
- Code IATA : RMS


ETAR - Ramstein Air Base

DERNIER METAR :
  • 240958Z 29011G22KT 9999 BKN035 21/10 A3007 RMK AO2A SLP178 T02100103 $

METARs EXPIRÉS :
  • 240858Z AUTO 27015KT 9999 BKN035 20/10 A3009 RMK AO2 SLP185 T01980101 50002 $
  • 240758Z AUTO 27015KT 9999 BKN035 18/10 A3009 RMK AO2 SLP185 T01830103 $
  • 240713Z 27017KT 9999 FEW028 BKN034 18/11 A3009 RMK AO2A SLP184

TAF TAF ETAR
Valide du 24 à 10h jusqu'au 25 à 16h UTC


241004Z 2410/2516 27015G20KT 9999 BKN035 QNH2997INS
BECMG 2417/2418 27009KT 9999 SCT050 QNH2995INS
BECMG 2505/2506 24009KT 9999 BKN050 QNH2994INS
TEMPO 2510/2516 26015G25KT 8000 -SHRA TX25/2415Z TN09/2501Z
Pas de NOTAMs connus pour ce terrain.



MET'MAP, la Météo Aéronautique d'un coup d'oeil ! - Copyright ORBIFLY Décembre 2007 - Disclaimer

ORBIFLY MET'MAP TEAM :

Programmation & Développement : Alexandra Zaïnal
Conception & Développement : Baudouin d'Aumeries
Co-Programmation & Développement : Marc-Olivier Méhu
Soutien technique & logistique : Manuel Goepfert

Contact : metmap@orbifly.com




SOURCES & CREDITS :

   NOAA